sensor_id;sensor_type;location;lat;lon;timestamp;temperature;humidity
15819;DHT22;8010;53.986;12.106;2022-07-10T00:00:36;13.90;99.90
15819;DHT22;8010;53.986;12.106;2022-07-10T00:03:03;13.80;99.90
15819;DHT22;8010;53.986;12.106;2022-07-10T00:05:29;13.80;99.90
15819;DHT22;8010;53.986;12.106;2022-07-10T00:07:54;13.80;99.90
15819;DHT22;8010;53.986;12.106;2022-07-10T00:10:21;13.80;99.90
15819;DHT22;8010;53.986;12.106;2022-07-10T00:12:47;13.90;99.90
15819;DHT22;8010;53.986;12.106;2022-07-10T00:15:14;13.90;99.90
15819;DHT22;8010;53.986;12.106;2022-07-10T00:17:41;13.90;99.90
15819;DHT22;8010;53.986;12.106;2022-07-10T00:20:07;13.90;99.90
15819;DHT22;8010;53.986;12.106;2022-07-10T00:22:34;13.90;99.90
15819;DHT22;8010;53.986;12.106;2022-07-10T00:25:01;13.90;99.90
15819;DHT22;8010;53.986;12.106;2022-07-10T00:27:26;13.80;99.90
15819;DHT22;8010;53.986;12.106;2022-07-10T00:29:52;13.90;99.90
15819;DHT22;8010;53.986;12.106;2022-07-10T00:32:18;13.80;99.90
15819;DHT22;8010;53.986;12.106;2022-07-10T00:34:43;13.80;99.90
15819;DHT22;8010;53.986;12.106;2022-07-10T00:37:09;13.90;99.90
15819;DHT22;8010;53.986;12.106;2022-07-10T00:39:34;13.80;99.90
15819;DHT22;8010;53.986;12.106;2022-07-10T00:44:33;13.90;99.90
15819;DHT22;8010;53.986;12.106;2022-07-10T00:46:59;13.90;99.90
15819;DHT22;8010;53.986;12.106;2022-07-10T00:49:24;13.90;99.90
15819;DHT22;8010;53.986;12.106;2022-07-10T00:51:50;13.90;99.90
15819;DHT22;8010;53.986;12.106;2022-07-10T00:54:16;13.90;99.90
15819;DHT22;8010;53.986;12.106;2022-07-10T00:56:42;13.80;99.90
15819;DHT22;8010;53.986;12.106;2022-07-10T00:59:09;13.80;99.90
15819;DHT22;8010;53.986;12.106;2022-07-10T01:01:35;13.80;99.90
15819;DHT22;8010;53.986;12.106;2022-07-10T01:04:01;13.80;99.90
15819;DHT22;8010;53.986;12.106;2022-07-10T01:06:27;13.80;99.90
15819;DHT22;8010;53.986;12.106;2022-07-10T01:08:52;13.80;99.90
15819;DHT22;8010;53.986;12.106;2022-07-10T01:11:18;13.80;99.90
15819;DHT22;8010;53.986;12.106;2022-07-10T01:13:43;13.80;99.90
15819;DHT22;8010;53.986;12.106;2022-07-10T01:16:10;13.80;99.90
15819;DHT22;8010;53.986;12.106;2022-07-10T01:18:36;13.70;99.90
15819;DHT22;8010;53.986;12.106;2022-07-10T01:21:01;13.70;99.90
15819;DHT22;8010;53.986;12.106;2022-07-10T01:23:27;13.70;99.90
15819;DHT22;8010;53.986;12.106;2022-07-10T01:25:52;13.60;99.90
15819;DHT22;8010;53.986;12.106;2022-07-10T01:28:19;13.60;99.90
15819;DHT22;8010;53.986;12.106;2022-07-10T01:30:46;13.60;99.90
15819;DHT22;8010;53.986;12.106;2022-07-10T01:33:13;13.50;99.90
15819;DHT22;8010;53.986;12.106;2022-07-10T01:35:39;13.60;99.90
15819;DHT22;8010;53.986;12.106;2022-07-10T01:38:04;13.60;99.90
15819;DHT22;8010;53.986;12.106;2022-07-10T01:40:30;13.60;99.90
15819;DHT22;8010;53.986;12.106;2022-07-10T01:42:56;13.60;99.90
15819;DHT22;8010;53.986;12.106;2022-07-10T01:45:22;13.70;99.90
15819;DHT22;8010;53.986;12.106;2022-07-10T01:47:47;13.70;99.90
15819;DHT22;8010;53.986;12.106;2022-07-10T01:50:13;13.70;99.90
15819;DHT22;8010;53.986;12.106;2022-07-10T01:52:39;13.80;99.90
15819;DHT22;8010;53.986;12.106;2022-07-10T01:55:05;13.80;99.90
15819;DHT22;8010;53.986;12.106;2022-07-10T01:57:31;13.80;99.90
15819;DHT22;8010;53.986;12.106;2022-07-10T01:59:57;13.80;99.90
15819;DHT22;8010;53.986;12.106;2022-07-10T02:02:22;13.80;99.90
15819;DHT22;8010;53.986;12.106;2022-07-10T02:04:48;13.90;99.90
15819;DHT22;8010;53.986;12.106;2022-07-10T02:07:15;13.80;99.90
15819;DHT22;8010;53.986;12.106;2022-07-10T02:09:42;13.80;99.90
15819;DHT22;8010;53.986;12.106;2022-07-10T02:12:09;13.80;99.90
15819;DHT22;8010;53.986;12.106;2022-07-10T02:14:35;13.80;99.90
15819;DHT22;8010;53.986;12.106;2022-07-10T02:17:01;13.90;99.90
15819;DHT22;8010;53.986;12.106;2022-07-10T02:19:27;13.80;99.90
15819;DHT22;8010;53.986;12.106;2022-07-10T02:21:53;13.80;99.90
15819;DHT22;8010;53.986;12.106;2022-07-10T02:24:18;13.80;99.90
15819;DHT22;8010;53.986;12.106;2022-07-10T02:26:44;13.80;99.90
15819;DHT22;8010;53.986;12.106;2022-07-10T02:29:09;13.80;99.90
15819;DHT22;8010;53.986;12.106;2022-07-10T02:31:35;13.80;99.90
15819;DHT22;8010;53.986;12.106;2022-07-10T02:34:09;13.90;99.90
15819;DHT22;8010;53.986;12.106;2022-07-10T02:36:35;13.80;99.90
15819;DHT22;8010;53.986;12.106;2022-07-10T02:39:02;13.80;99.90
15819;DHT22;8010;53.986;12.106;2022-07-10T02:41:28;13.90;99.90
15819;DHT22;8010;53.986;12.106;2022-07-10T02:43:53;13.80;99.90
15819;DHT22;8010;53.986;12.106;2022-07-10T02:46:19;13.80;99.90
15819;DHT22;8010;53.986;12.106;2022-07-10T02:48:44;13.80;99.90
15819;DHT22;8010;53.986;12.106;2022-07-10T02:51:10;13.70;99.90
15819;DHT22;8010;53.986;12.106;2022-07-10T02:53:35;13.70;99.90
15819;DHT22;8010;53.986;12.106;2022-07-10T02:56:01;13.70;99.90
15819;DHT22;8010;53.986;12.106;2022-07-10T02:58:27;13.60;99.90
15819;DHT22;8010;53.986;12.106;2022-07-10T03:00:53;13.60;99.90
15819;DHT22;8010;53.986;12.106;2022-07-10T03:03:18;13.60;99.90
15819;DHT22;8010;53.986;12.106;2022-07-10T03:05:45;13.50;99.90
15819;DHT22;8010;53.986;12.106;2022-07-10T03:08:10;13.50;99.90
15819;DHT22;8010;53.986;12.106;2022-07-10T03:10:36;13.50;99.90
15819;DHT22;8010;53.986;12.106;2022-07-10T03:13:02;13.50;99.90
15819;DHT22;8010;53.986;12.106;2022-07-10T03:15:27;13.50;99.90
15819;DHT22;8010;53.986;12.106;2022-07-10T03:17:53;13.60;99.90
15819;DHT22;8010;53.986;12.106;2022-07-10T03:20:18;13.60;99.90
15819;DHT22;8010;53.986;12.106;2022-07-10T03:22:44;13.60;99.90
15819;DHT22;8010;53.986;12.106;2022-07-10T03:25:09;13.60;99.90
15819;DHT22;8010;53.986;12.106;2022-07-10T03:27:35;13.70;99.90
15819;DHT22;8010;53.986;12.106;2022-07-10T03:30:01;13.70;99.90
15819;DHT22;8010;53.986;12.106;2022-07-10T03:32:27;13.70;99.90
15819;DHT22;8010;53.986;12.106;2022-07-10T03:34:52;13.70;99.90
15819;DHT22;8010;53.986;12.106;2022-07-10T03:37:18;13.80;99.90
15819;DHT22;8010;53.986;12.106;2022-07-10T03:39:43;13.80;99.90
15819;DHT22;8010;53.986;12.106;2022-07-10T03:42:09;13.90;99.90
15819;DHT22;8010;53.986;12.106;2022-07-10T03:44:34;13.80;99.90
15819;DHT22;8010;53.986;12.106;2022-07-10T03:47:01;13.80;99.90
15819;DHT22;8010;53.986;12.106;2022-07-10T03:49:26;13.80;99.90
15819;DHT22;8010;53.986;12.106;2022-07-10T03:51:52;13.70;99.90
15819;DHT22;8010;53.986;12.106;2022-07-10T03:54:17;13.70;99.90
15819;DHT22;8010;53.986;12.106;2022-07-10T03:56:43;13.60;99.90
15819;DHT22;8010;53.986;12.106;2022-07-10T03:59:27;13.60;99.90
15819;DHT22;8010;53.986;12.106;2022-07-10T04:01:53;13.50;99.90
15819;DHT22;8010;53.986;12.106;2022-07-10T04:04:18;13.50;99.90
15819;DHT22;8010;53.986;12.106;2022-07-10T04:06:44;13.40;99.90
15819;DHT22;8010;53.986;12.106;2022-07-10T04:09:09;13.40;99.90
15819;DHT22;8010;53.986;12.106;2022-07-10T04:11:35;13.30;99.90
15819;DHT22;8010;53.986;12.106;2022-07-10T04:14:00;13.30;99.90
15819;DHT22;8010;53.986;12.106;2022-07-10T04:16:26;13.30;99.90
15819;DHT22;8010;53.986;12.106;2022-07-10T04:18:51;13.30;99.90
15819;DHT22;8010;53.986;12.106;2022-07-10T04:21:17;13.30;99.90
15819;DHT22;8010;53.986;12.106;2022-07-10T04:23:42;13.40;99.90
15819;DHT22;8010;53.986;12.106;2022-07-10T04:26:08;13.40;99.90
15819;DHT22;8010;53.986;12.106;2022-07-10T04:28:33;13.50;99.90
15819;DHT22;8010;53.986;12.106;2022-07-10T04:30:59;13.50;99.90
15819;DHT22;8010;53.986;12.106;2022-07-10T04:33:25;13.50;99.90
15819;DHT22;8010;53.986;12.106;2022-07-10T04:35:51;13.50;99.90
15819;DHT22;8010;53.986;12.106;2022-07-10T04:38:16;13.50;99.90
15819;DHT22;8010;53.986;12.106;2022-07-10T04:40:42;13.50;99.90
15819;DHT22;8010;53.986;12.106;2022-07-10T04:43:07;13.50;99.90
15819;DHT22;8010;53.986;12.106;2022-07-10T04:45:35;13.50;99.90
15819;DHT22;8010;53.986;12.106;2022-07-10T04:48:03;13.50;99.90
15819;DHT22;8010;53.986;12.106;2022-07-10T04:50:29;13.50;99.90
15819;DHT22;8010;53.986;12.106;2022-07-10T04:52:56;13.50;99.90
15819;DHT22;8010;53.986;12.106;2022-07-10T04:55:21;13.40;99.90
15819;DHT22;8010;53.986;12.106;2022-07-10T04:57:47;13.40;99.90
15819;DHT22;8010;53.986;12.106;2022-07-10T05:00:13;13.40;99.90
15819;DHT22;8010;53.986;12.106;2022-07-10T05:02:39;13.40;99.90
15819;DHT22;8010;53.986;12.106;2022-07-10T05:05:04;13.50;99.90
15819;DHT22;8010;53.986;12.106;2022-07-10T05:07:30;13.50;99.90
15819;DHT22;8010;53.986;12.106;2022-07-10T05:09:56;13.60;99.90
15819;DHT22;8010;53.986;12.106;2022-07-10T05:12:21;13.70;99.90
15819;DHT22;8010;53.986;12.106;2022-07-10T05:14:46;13.80;99.90
15819;DHT22;8010;53.986;12.106;2022-07-10T05:17:12;13.90;99.90
15819;DHT22;8010;53.986;12.106;2022-07-10T05:19:38;14.00;99.90
15819;DHT22;8010;53.986;12.106;2022-07-10T05:22:03;14.10;99.90
15819;DHT22;8010;53.986;12.106;2022-07-10T05:24:29;14.20;99.90
15819;DHT22;8010;53.986;12.106;2022-07-10T05:26:54;14.40;99.90
15819;DHT22;8010;53.986;12.106;2022-07-10T05:29:20;14.50;99.90
15819;DHT22;8010;53.986;12.106;2022-07-10T05:31:45;14.70;99.90
15819;DHT22;8010;53.986;12.106;2022-07-10T05:34:11;14.80;99.90
15819;DHT22;8010;53.986;12.106;2022-07-10T05:36:36;14.90;99.90
15819;DHT22;8010;53.986;12.106;2022-07-10T05:39:02;15.00;99.90
15819;DHT22;8010;53.986;12.106;2022-07-10T05:41:28;14.90;99.90
15819;DHT22;8010;53.986;12.106;2022-07-10T05:43:53;14.80;99.90
15819;DHT22;8010;53.986;12.106;2022-07-10T05:46:19;14.70;99.90
15819;DHT22;8010;53.986;12.106;2022-07-10T05:48:44;14.60;99.90
15819;DHT22;8010;53.986;12.106;2022-07-10T05:51:10;14.50;99.90
15819;DHT22;8010;53.986;12.106;2022-07-10T05:53:36;14.50;99.90
15819;DHT22;8010;53.986;12.106;2022-07-10T05:56:01;14.50;99.90
15819;DHT22;8010;53.986;12.106;2022-07-10T05:58:27;14.50;99.90
15819;DHT22;8010;53.986;12.106;2022-07-10T06:00:53;14.60;99.90
15819;DHT22;8010;53.986;12.106;2022-07-10T06:03:18;14.70;99.90
15819;DHT22;8010;53.986;12.106;2022-07-10T06:05:44;14.80;99.90
15819;DHT22;8010;53.986;12.106;2022-07-10T06:08:11;14.80;99.90
15819;DHT22;8010;53.986;12.106;2022-07-10T06:10:37;14.90;99.90
15819;DHT22;8010;53.986;12.106;2022-07-10T06:13:04;15.00;99.90
15819;DHT22;8010;53.986;12.106;2022-07-10T06:15:30;15.10;99.90
15819;DHT22;8010;53.986;12.106;2022-07-10T06:17:58;15.10;99.90
15819;DHT22;8010;53.986;12.106;2022-07-10T06:20:26;15.10;99.90
15819;DHT22;8010;53.986;12.106;2022-07-10T06:22:52;15.20;99.90
15819;DHT22;8010;53.986;12.106;2022-07-10T06:25:17;15.20;99.90
15819;DHT22;8010;53.986;12.106;2022-07-10T06:27:43;15.30;99.90
15819;DHT22;8010;53.986;12.106;2022-07-10T06:30:09;15.40;99.90
15819;DHT22;8010;53.986;12.106;2022-07-10T06:32:34;15.40;99.90
15819;DHT22;8010;53.986;12.106;2022-07-10T06:35:00;15.30;99.90
15819;DHT22;8010;53.986;12.106;2022-07-10T06:37:27;15.30;99.90
15819;DHT22;8010;53.986;12.106;2022-07-10T06:39:52;15.20;99.90
15819;DHT22;8010;53.986;12.106;2022-07-10T06:42:18;15.20;99.90
15819;DHT22;8010;53.986;12.106;2022-07-10T06:44:44;15.20;99.90
15819;DHT22;8010;53.986;12.106;2022-07-10T06:47:11;15.20;99.90
15819;DHT22;8010;53.986;12.106;2022-07-10T06:49:56;15.30;99.90
15819;DHT22;8010;53.986;12.106;2022-07-10T06:52:22;15.30;99.90
15819;DHT22;8010;53.986;12.106;2022-07-10T06:54:48;15.30;99.90
15819;DHT22;8010;53.986;12.106;2022-07-10T06:57:14;15.40;99.90
15819;DHT22;8010;53.986;12.106;2022-07-10T06:59:40;15.40;99.90
15819;DHT22;8010;53.986;12.106;2022-07-10T07:02:05;15.50;99.90
15819;DHT22;8010;53.986;12.106;2022-07-10T07:04:31;15.60;99.90
15819;DHT22;8010;53.986;12.106;2022-07-10T07:06:56;15.60;99.90
15819;DHT22;8010;53.986;12.106;2022-07-10T07:09:22;15.70;99.90
15819;DHT22;8010;53.986;12.106;2022-07-10T07:11:48;15.70;99.90
15819;DHT22;8010;53.986;12.106;2022-07-10T07:14:13;15.70;99.90
15819;DHT22;8010;53.986;12.106;2022-07-10T07:16:39;15.70;99.90
15819;DHT22;8010;53.986;12.106;2022-07-10T07:19:09;15.70;99.90
15819;DHT22;8010;53.986;12.106;2022-07-10T07:21:37;15.80;99.90
15819;DHT22;8010;53.986;12.106;2022-07-10T07:24:21;15.90;99.90
15819;DHT22;8010;53.986;12.106;2022-07-10T07:26:47;15.90;99.90
15819;DHT22;8010;53.986;12.106;2022-07-10T07:29:17;15.90;99.90
15819;DHT22;8010;53.986;12.106;2022-07-10T07:31:42;16.00;99.90
15819;DHT22;8010;53.986;12.106;2022-07-10T07:34:08;16.00;99.90
15819;DHT22;8010;53.986;12.106;2022-07-10T07:36:34;16.00;99.90
15819;DHT22;8010;53.986;12.106;2022-07-10T07:39:00;16.00;99.90
15819;DHT22;8010;53.986;12.106;2022-07-10T07:41:26;16.00;99.90
15819;DHT22;8010;53.986;12.106;2022-07-10T07:43:51;16.10;99.90
15819;DHT22;8010;53.986;12.106;2022-07-10T07:46:18;16.10;99.90
15819;DHT22;8010;53.986;12.106;2022-07-10T07:48:43;16.20;99.90
15819;DHT22;8010;53.986;12.106;2022-07-10T07:51:09;16.10;99.90
15819;DHT22;8010;53.986;12.106;2022-07-10T07:53:34;16.20;99.90
15819;DHT22;8010;53.986;12.106;2022-07-10T07:56:00;16.20;99.90
15819;DHT22;8010;53.986;12.106;2022-07-10T07:58:25;16.20;99.90
15819;DHT22;8010;53.986;12.106;2022-07-10T08:00:51;16.10;99.90
15819;DHT22;8010;53.986;12.106;2022-07-10T08:03:17;16.10;99.90
15819;DHT22;8010;53.986;12.106;2022-07-10T08:05:43;16.00;99.90
15819;DHT22;8010;53.986;12.106;2022-07-10T08:08:08;16.00;99.90
15819;DHT22;8010;53.986;12.106;2022-07-10T08:10:36;16.00;99.90
15819;DHT22;8010;53.986;12.106;2022-07-10T08:13:02;16.00;99.90
15819;DHT22;8010;53.986;12.106;2022-07-10T08:15:28;16.10;99.90
15819;DHT22;8010;53.986;12.106;2022-07-10T08:17:56;16.20;99.90
15819;DHT22;8010;53.986;12.106;2022-07-10T08:20:23;16.30;99.90
15819;DHT22;8010;53.986;12.106;2022-07-10T08:22:49;16.40;99.90
15819;DHT22;8010;53.986;12.106;2022-07-10T08:25:15;16.50;99.90
15819;DHT22;8010;53.986;12.106;2022-07-10T08:27:41;16.50;99.90
15819;DHT22;8010;53.986;12.106;2022-07-10T08:30:08;16.40;99.90
15819;DHT22;8010;53.986;12.106;2022-07-10T08:32:37;16.30;99.90
15819;DHT22;8010;53.986;12.106;2022-07-10T08:35:03;16.20;99.90
15819;DHT22;8010;53.986;12.106;2022-07-10T08:37:29;16.10;99.90
15819;DHT22;8010;53.986;12.106;2022-07-10T08:39:55;16.00;99.90
15819;DHT22;8010;53.986;12.106;2022-07-10T08:42:21;16.00;99.90
15819;DHT22;8010;53.986;12.106;2022-07-10T08:44:46;16.00;99.90
15819;DHT22;8010;53.986;12.106;2022-07-10T08:47:13;16.10;99.90
15819;DHT22;8010;53.986;12.106;2022-07-10T08:49:46;16.20;99.90
15819;DHT22;8010;53.986;12.106;2022-07-10T08:52:41;16.30;99.90
15819;DHT22;8010;53.986;12.106;2022-07-10T08:55:08;16.30;99.90
15819;DHT22;8010;53.986;12.106;2022-07-10T08:57:37;16.40;99.90
15819;DHT22;8010;53.986;12.106;2022-07-10T09:00:04;16.30;99.90
15819;DHT22;8010;53.986;12.106;2022-07-10T09:02:30;16.30;99.90
15819;DHT22;8010;53.986;12.106;2022-07-10T09:04:55;16.30;99.90
15819;DHT22;8010;53.986;12.106;2022-07-10T09:07:21;16.20;99.90
15819;DHT22;8010;53.986;12.106;2022-07-10T09:09:54;16.20;99.90
15819;DHT22;8010;53.986;12.106;2022-07-10T09:12:23;16.20;99.90
15819;DHT22;8010;53.986;12.106;2022-07-10T09:14:50;16.30;99.90
15819;DHT22;8010;53.986;12.106;2022-07-10T09:17:17;16.40;99.90
15819;DHT22;8010;53.986;12.106;2022-07-10T09:19:43;16.50;99.90
15819;DHT22;8010;53.986;12.106;2022-07-10T09:22:10;16.50;99.90
15819;DHT22;8010;53.986;12.106;2022-07-10T09:24:39;16.50;99.90
15819;DHT22;8010;53.986;12.106;2022-07-10T09:27:06;16.60;99.90
15819;DHT22;8010;53.986;12.106;2022-07-10T09:29:32;16.80;99.90
15819;DHT22;8010;53.986;12.106;2022-07-10T09:31:59;17.00;99.90
15819;DHT22;8010;53.986;12.106;2022-07-10T09:34:43;17.10;99.90
15819;DHT22;8010;53.986;12.106;2022-07-10T09:37:28;17.10;99.90
15819;DHT22;8010;53.986;12.106;2022-07-10T09:39:57;17.00;99.90
15819;DHT22;8010;53.986;12.106;2022-07-10T09:42:41;17.20;99.90
15819;DHT22;8010;53.986;12.106;2022-07-10T09:47:36;17.20;99.90
15819;DHT22;8010;53.986;12.106;2022-07-10T09:50:02;17.30;99.90
15819;DHT22;8010;53.986;12.106;2022-07-10T09:52:28;17.30;99.90
15819;DHT22;8010;53.986;12.106;2022-07-10T09:54:55;17.30;99.90
15819;DHT22;8010;53.986;12.106;2022-07-10T09:57:23;17.30;99.90
15819;DHT22;8010;53.986;12.106;2022-07-10T09:59:53;17.20;99.90
15819;DHT22;8010;53.986;12.106;2022-07-10T10:02:19;17.30;99.90
15819;DHT22;8010;53.986;12.106;2022-07-10T10:04:46;17.40;99.90
15819;DHT22;8010;53.986;12.106;2022-07-10T10:07:13;17.60;99.90
15819;DHT22;8010;53.986;12.106;2022-07-10T10:09:47;17.70;99.90
15819;DHT22;8010;53.986;12.106;2022-07-10T10:12:22;17.90;99.90
15819;DHT22;8010;53.986;12.106;2022-07-10T10:14:50;17.80;99.90
15819;DHT22;8010;53.986;12.106;2022-07-10T10:17:17;17.60;99.90
15819;DHT22;8010;53.986;12.106;2022-07-10T10:19:45;17.60;99.90
15819;DHT22;8010;53.986;12.106;2022-07-10T10:22:29;17.70;99.90
15819;DHT22;8010;53.986;12.106;2022-07-10T10:24:56;17.70;99.90
15819;DHT22;8010;53.986;12.106;2022-07-10T10:27:23;17.80;99.90
15819;DHT22;8010;53.986;12.106;2022-07-10T10:29:50;17.80;99.90
15819;DHT22;8010;53.986;12.106;2022-07-10T10:32:16;17.80;99.90
15819;DHT22;8010;53.986;12.106;2022-07-10T10:34:47;17.80;99.90
15819;DHT22;8010;53.986;12.106;2022-07-10T10:37:39;17.90;99.90
15819;DHT22;8010;53.986;12.106;2022-07-10T10:40:09;18.00;99.90
15819;DHT22;8010;53.986;12.106;2022-07-10T10:42:43;18.10;99.90
15819;DHT22;8010;53.986;12.106;2022-07-10T10:48:10;18.80;99.90
15819;DHT22;8010;53.986;12.106;2022-07-10T10:50:57;19.10;99.90
15819;DHT22;8010;53.986;12.106;2022-07-10T10:53:24;19.00;99.90
15819;DHT22;8010;53.986;12.106;2022-07-10T10:58:38;18.40;99.90
15819;DHT22;8010;53.986;12.106;2022-07-10T11:01:05;18.50;99.90
15819;DHT22;8010;53.986;12.106;2022-07-10T11:03:31;18.50;99.90
15819;DHT22;8010;53.986;12.106;2022-07-10T11:05:57;18.50;99.90
15819;DHT22;8010;53.986;12.106;2022-07-10T11:08:39;18.40;99.90
15819;DHT22;8010;53.986;12.106;2022-07-10T11:13:57;18.50;99.90
15819;DHT22;8010;53.986;12.106;2022-07-10T11:16:23;19.10;99.90
15819;DHT22;8010;53.986;12.106;2022-07-10T11:18:54;19.50;99.90
15819;DHT22;8010;53.986;12.106;2022-07-10T11:21:25;19.30;99.90
15819;DHT22;8010;53.986;12.106;2022-07-10T11:24:06;19.00;99.90
15819;DHT22;8010;53.986;12.106;2022-07-10T11:26:51;18.60;99.90
15819;DHT22;8010;53.986;12.106;2022-07-10T11:29:19;18.20;99.90
15819;DHT22;8010;53.986;12.106;2022-07-10T11:31:55;18.10;99.90
15819;DHT22;8010;53.986;12.106;2022-07-10T11:34:23;18.10;99.90
15819;DHT22;8010;53.986;12.106;2022-07-10T11:36:59;18.10;99.90
15819;DHT22;8010;53.986;12.106;2022-07-10T11:39:24;18.00;99.90
15819;DHT22;8010;53.986;12.106;2022-07-10T11:41:50;18.00;99.90
15819;DHT22;8010;53.986;12.106;2022-07-10T11:44:17;18.10;99.90
15819;DHT22;8010;53.986;12.106;2022-07-10T11:46:43;18.30;99.90
15819;DHT22;8010;53.986;12.106;2022-07-10T11:49:10;18.50;99.90
15819;DHT22;8010;53.986;12.106;2022-07-10T11:51:38;18.60;99.90
15819;DHT22;8010;53.986;12.106;2022-07-10T11:54:10;18.80;99.90
15819;DHT22;8010;53.986;12.106;2022-07-10T11:56:38;18.80;99.90
15819;DHT22;8010;53.986;12.106;2022-07-10T11:59:07;18.90;99.90
15819;DHT22;8010;53.986;12.106;2022-07-10T12:01:44;18.90;99.90
15819;DHT22;8010;53.986;12.106;2022-07-10T12:04:11;19.20;99.90
15819;DHT22;8010;53.986;12.106;2022-07-10T12:06:39;19.40;99.90
15819;DHT22;8010;53.986;12.106;2022-07-10T12:09:13;19.60;99.90
15819;DHT22;8010;53.986;12.106;2022-07-10T12:11:39;19.90;99.90
15819;DHT22;8010;53.986;12.106;2022-07-10T12:14:16;20.40;99.90
15819;DHT22;8010;53.986;12.106;2022-07-10T12:16:49;20.50;99.90
15819;DHT22;8010;53.986;12.106;2022-07-10T12:19:16;20.50;99.90
15819;DHT22;8010;53.986;12.106;2022-07-10T12:21:43;20.40;99.90
15819;DHT22;8010;53.986;12.106;2022-07-10T12:24:11;20.10;99.90
15819;DHT22;8010;53.986;12.106;2022-07-10T12:26:39;19.90;99.90
15819;DHT22;8010;53.986;12.106;2022-07-10T12:29:04;20.00;99.90
15819;DHT22;8010;53.986;12.106;2022-07-10T12:31:32;20.20;99.90
15819;DHT22;8010;53.986;12.106;2022-07-10T12:34:03;20.40;99.90
15819;DHT22;8010;53.986;12.106;2022-07-10T12:39:12;20.90;99.90
15819;DHT22;8010;53.986;12.106;2022-07-10T12:42:00;21.00;99.90
15819;DHT22;8010;53.986;12.106;2022-07-10T12:47:06;21.50;99.90
15819;DHT22;8010;53.986;12.106;2022-07-10T12:49:56;21.80;99.90
15819;DHT22;8010;53.986;12.106;2022-07-10T12:52:31;22.10;99.90
15819;DHT22;8010;53.986;12.106;2022-07-10T12:55:13;22.00;99.90
15819;DHT22;8010;53.986;12.106;2022-07-10T12:57:56;21.60;99.90
15819;DHT22;8010;53.986;12.106;2022-07-10T13:00:24;21.30;99.90
15819;DHT22;8010;53.986;12.106;2022-07-10T13:03:04;21.10;99.90
15819;DHT22;8010;53.986;12.106;2022-07-10T13:05:40;21.30;99.90
15819;DHT22;8010;53.986;12.106;2022-07-10T13:08:15;21.50;99.90
15819;DHT22;8010;53.986;12.106;2022-07-10T13:10:43;21.50;99.90
15819;DHT22;8010;53.986;12.106;2022-07-10T13:13:10;21.80;99.90
15819;DHT22;8010;53.986;12.106;2022-07-10T13:15:36;21.80;99.90
15819;DHT22;8010;53.986;12.106;2022-07-10T13:18:13;21.80;99.90
15819;DHT22;8010;53.986;12.106;2022-07-10T13:20:39;21.70;99.90
15819;DHT22;8010;53.986;12.106;2022-07-10T13:23:05;21.60;99.90
15819;DHT22;8010;53.986;12.106;2022-07-10T13:25:31;21.10;99.90
15819;DHT22;8010;53.986;12.106;2022-07-10T13:27:57;20.60;99.90
15819;DHT22;8010;53.986;12.106;2022-07-10T13:30:24;20.30;99.90
15819;DHT22;8010;53.986;12.106;2022-07-10T13:32:49;20.20;99.90
15819;DHT22;8010;53.986;12.106;2022-07-10T13:35:15;20.40;99.90
15819;DHT22;8010;53.986;12.106;2022-07-10T13:37:40;20.40;99.90
15819;DHT22;8010;53.986;12.106;2022-07-10T13:40:07;20.50;99.90
15819;DHT22;8010;53.986;12.106;2022-07-10T13:42:33;20.60;99.90
15819;DHT22;8010;53.986;12.106;2022-07-10T13:44:59;20.90;99.90
15819;DHT22;8010;53.986;12.106;2022-07-10T13:47:25;21.20;99.90
15819;DHT22;8010;53.986;12.106;2022-07-10T13:49:50;21.30;99.90
15819;DHT22;8010;53.986;12.106;2022-07-10T13:52:16;21.20;99.90
15819;DHT22;8010;53.986;12.106;2022-07-10T13:54:41;20.90;99.90
15819;DHT22;8010;53.986;12.106;2022-07-10T13:57:07;20.70;99.90
15819;DHT22;8010;53.986;12.106;2022-07-10T13:59:33;20.80;99.90
15819;DHT22;8010;53.986;12.106;2022-07-10T14:01:58;20.90;99.90
15819;DHT22;8010;53.986;12.106;2022-07-10T14:04:24;21.10;99.90
15819;DHT22;8010;53.986;12.106;2022-07-10T14:06:49;21.30;99.90
15819;DHT22;8010;53.986;12.106;2022-07-10T14:09:15;21.20;99.90
15819;DHT22;8010;53.986;12.106;2022-07-10T14:11:40;21.00;99.90
15819;DHT22;8010;53.986;12.106;2022-07-10T14:14:09;21.10;99.90
15819;DHT22;8010;53.986;12.106;2022-07-10T14:16:36;21.30;99.90
15819;DHT22;8010;53.986;12.106;2022-07-10T14:19:02;21.70;99.90
15819;DHT22;8010;53.986;12.106;2022-07-10T14:21:27;22.10;99.90
15819;DHT22;8010;53.986;12.106;2022-07-10T14:23:53;22.40;99.90
15819;DHT22;8010;53.986;12.106;2022-07-10T14:26:21;22.60;99.90
15819;DHT22;8010;53.986;12.106;2022-07-10T14:28:47;22.90;99.90
15819;DHT22;8010;53.986;12.106;2022-07-10T14:31:12;23.10;99.90
15819;DHT22;8010;53.986;12.106;2022-07-10T14:33:38;23.40;99.90
15819;DHT22;8010;53.986;12.106;2022-07-10T14:36:04;23.60;99.90
15819;DHT22;8010;53.986;12.106;2022-07-10T14:38:30;23.80;99.90
15819;DHT22;8010;53.986;12.106;2022-07-10T14:40:55;24.10;99.90
15819;DHT22;8010;53.986;12.106;2022-07-10T14:43:21;24.40;99.90
15819;DHT22;8010;53.986;12.106;2022-07-10T14:45:48;24.30;99.90
15819;DHT22;8010;53.986;12.106;2022-07-10T14:48:13;23.90;99.90
15819;DHT22;8010;53.986;12.106;2022-07-10T14:50:39;23.50;99.90
15819;DHT22;8010;53.986;12.106;2022-07-10T14:53:06;23.40;99.90
15819;DHT22;8010;53.986;12.106;2022-07-10T14:55:32;23.10;99.90
15819;DHT22;8010;53.986;12.106;2022-07-10T14:57:58;23.20;99.90
15819;DHT22;8010;53.986;12.106;2022-07-10T15:00:23;23.30;99.90
15819;DHT22;8010;53.986;12.106;2022-07-10T15:02:49;23.30;99.90
15819;DHT22;8010;53.986;12.106;2022-07-10T15:05:14;23.30;99.90
15819;DHT22;8010;53.986;12.106;2022-07-10T15:07:40;23.30;99.90
15819;DHT22;8010;53.986;12.106;2022-07-10T15:10:06;23.40;99.90
15819;DHT22;8010;53.986;12.106;2022-07-10T15:12:36;23.40;99.90
15819;DHT22;8010;53.986;12.106;2022-07-10T15:15:07;23.40;99.90
15819;DHT22;8010;53.986;12.106;2022-07-10T15:17:34;23.10;99.90
15819;DHT22;8010;53.986;12.106;2022-07-10T15:20:00;23.00;99.90
15819;DHT22;8010;53.986;12.106;2022-07-10T15:22:26;23.00;99.90
15819;DHT22;8010;53.986;12.106;2022-07-10T15:24:51;22.70;99.90
15819;DHT22;8010;53.986;12.106;2022-07-10T15:27:17;22.10;99.90
15819;DHT22;8010;53.986;12.106;2022-07-10T15:29:42;21.80;99.90
15819;DHT22;8010;53.986;12.106;2022-07-10T15:32:08;21.60;99.90
15819;DHT22;8010;53.986;12.106;2022-07-10T15:34:35;21.80;99.90
15819;DHT22;8010;53.986;12.106;2022-07-10T15:37:00;21.80;99.90
15819;DHT22;8010;53.986;12.106;2022-07-10T15:39:26;21.80;99.90
15819;DHT22;8010;53.986;12.106;2022-07-10T15:41:51;23.50;99.90
15819;DHT22;8010;53.986;12.106;2022-07-10T15:44:17;21.70;99.90
15819;DHT22;8010;53.986;12.106;2022-07-10T15:46:42;21.80;99.90
15819;DHT22;8010;53.986;12.106;2022-07-10T15:49:08;22.10;99.90